Time;durP1;ratioP1;P1;durP2;ratioP2;P2;SDS_P1;SDS_P2;PMS_P1;PMS_P2;Temp;Humidity;BMP_temperature;BMP_pressure;BME280_temperature;BME280_humidity;BME280_pressure;Samples;Min_cycle;Max_cycle;Signal;HPM_P1;HPM_P2
2023/01/27 00:00:19;;;;;;;140.60;65.90;;;;;;;-0.60;100.00;98086.96;109082;1232;61261;-78
2023/01/27 00:03:05;;;;;;;142.20;66.00;;;;;;;-0.60;100.00;98085.53;109011;1232;61239;-78
2023/01/27 00:05:31;;;;;;;133.70;66.10;;;;;;;-0.59;100.00;98082.73;110313;1232;61146;-77
2023/01/27 00:07:59;;;;;;;144.70;67.00;;;;;;;-0.59;100.00;98079.23;109640;1232;61255;-78
2023/01/27 00:10:25;;;;;;;142.20;65.70;;;;;;;-0.59;100.00;98075.76;109140;1237;72046;-78
2023/01/27 00:15:37;;;;;;;138.20;65.80;;;;;;;-0.61;100.00;98070.13;109970;1232;61190;-77
2023/01/27 00:18:03;;;;;;;138.70;67.60;;;;;;;-0.61;100.00;98073.57;109237;1236;61231;-79
2023/01/27 00:26:07;;;;;;;141.40;64.60;;;;;;;-0.63;100.00;98072.10;109526;1232;61322;-79
2023/01/27 00:28:37;;;;;;;144.20;66.10;;;;;;;-0.64;100.00;98070.17;109518;1232;61165;-78
2023/01/27 00:31:04;;;;;;;135.90;66.80;;;;;;;-0.62;100.00;98068.95;109092;1237;74491;-77
2023/01/27 00:33:31;;;;;;;137.90;65.40;;;;;;;-0.62;100.00;98066.98;109136;1232;70896;-78
2023/01/27 00:36:05;;;;;;;144.80;68.70;;;;;;;-0.61;100.00;98070.54;109932;1232;61266;-77
2023/01/27 00:38:33;;;;;;;151.30;67.00;;;;;;;-0.59;100.00;98068.67;109724;1234;61233;-77
2023/01/27 00:41:18;;;;;;;142.70;63.90;;;;;;;-0.57;100.00;98070.35;109230;1235;61267;-77
2023/01/27 00:43:49;;;;;;;117.90;61.20;;;;;;;-0.57;100.00;98071.95;109798;1236;73427;-77
2023/01/27 00:46:16;;;;;;;134.50;63.30;;;;;;;-0.56;100.00;98069.89;109338;1231;70946;-78
2023/01/27 00:48:42;;;;;;;128.00;58.60;;;;;;;-0.55;100.00;98071.36;109129;1232;72496;-77
2023/01/27 00:51:09;;;;;;;130.50;58.70;;;;;;;-0.56;100.00;98072.76;108998;1236;61195;-77
2023/01/27 00:53:36;;;;;;;129.60;61.70;;;;;;;-0.57;100.00;98072.85;109446;1238;61066;-78
2023/01/27 00:56:02;;;;;;;119.40;56.90;;;;;;;-0.56;100.00;98078.38;110806;1236;61156;-79
2023/01/27 00:58:29;;;;;;;122.50;58.40;;;;;;;-0.55;100.00;98079.23;109313;1235;69868;-77
2023/01/27 01:00:58;;;;;;;126.40;59.30;;;;;;;-0.54;100.00;98078.23;109174;1232;61212;-78
2023/01/27 01:03:25;;;;;;;123.30;60.20;;;;;;;-0.54;100.00;98076.23;109271;1236;61146;-79
2023/01/27 01:05:51;;;;;;;126.60;61.00;;;;;;;-0.57;100.00;98075.47;110130;1232;61229;-79
2023/01/27 01:08:18;;;;;;;126.40;60.00;;;;;;;-0.60;100.00;98076.08;109579;1237;61146;-80
2023/01/27 01:10:44;;;;;;;127.20;59.40;;;;;;;-0.59;100.00;98073.71;109397;1232;61210;-77
2023/01/27 01:13:11;;;;;;;115.50;56.80;;;;;;;-0.58;100.00;98078.30;109123;1235;61295;-78
2023/01/27 01:15:38;;;;;;;127.60;58.70;;;;;;;-0.58;100.00;98076.61;109381;1232;61229;-78
2023/01/27 01:18:04;;;;;;;120.50;56.40;;;;;;;-0.60;100.00;98071.45;109034;1232;61210;-78
2023/01/27 01:20:35;;;;;;;120.20;58.70;;;;;;;-0.61;100.00;98071.93;109573;1236;74400;-79
2023/01/27 01:23:01;;;;;;;113.60;53.70;;;;;;;-0.61;100.00;98071.80;109054;1237;71158;-80
2023/01/27 01:25:28;;;;;;;117.70;55.60;;;;;;;-0.62;100.00;98070.25;109973;1232;61233;-78
2023/01/27 01:27:54;;;;;;;122.00;61.00;;;;;;;-0.63;100.00;98074.77;109515;1232;61144;-78
2023/01/27 01:30:21;;;;;;;124.00;59.10;;;;;;;-0.65;100.00;98074.41;109149;1232;61286;-79
2023/01/27 01:32:47;;;;;;;114.00;56.60;;;;;;;-0.64;100.00;98068.80;109577;1232;61276;-79
2023/01/27 01:35:13;;;;;;;114.60;57.20;;;;;;;-0.65;100.00;98065.81;109500;1237;61421;-78
2023/01/27 01:37:40;;;;;;;123.30;58.70;;;;;;;-0.67;100.00;98067.13;110004;1232;61117;-78
2023/01/27 01:40:07;;;;;;;122.20;57.30;;;;;;;-0.66;100.00;98064.18;109001;1238;61338;-79
2023/01/27 01:42:52;;;;;;;113.80;56.10;;;;;;;-0.65;100.00;98067.89;109260;1232;61197;-79
2023/01/27 01:45:31;;;;;;;116.50;53.70;;;;;;;-0.65;100.00;98063.96;109860;1232;65831;-78
2023/01/27 01:48:26;;;;;;;117.90;54.60;;;;;;;-0.65;100.00;98057.99;109884;1237;70922;-78
2023/01/27 01:51:20;;;;;;;118.00;53.60;;;;;;;-0.67;100.00;98058.36;109153;1236;71377;-78
2023/01/27 01:53:54;;;;;;;117.40;56.40;;;;;;;-0.66;100.00;98054.43;108950;1237;61292;-79
2023/01/27 01:56:23;;;;;;;112.40;54.80;;;;;;;-0.67;100.00;98053.00;110760;1235;61287;-78
2023/01/27 01:58:49;;;;;;;;;;;;;;;-0.69;100.00;98051.94;109331;1232;64863;-79
2023/01/27 02:01:16;;;;;;;106.70;50.40;;;;;;;-0.72;100.00;98052.42;109236;1236;61344;-80
2023/01/27 02:03:44;;;;;;;107.10;50.20;;;;;;;-0.76;100.00;98050.80;109125;1231;61207;-80
2023/01/27 02:06:10;;;;;;;116.10;53.40;;;;;;;-0.82;100.00;98048.27;111027;1231;61198;-78
2023/01/27 02:08:39;;;;;;;116.60;55.60;;;;;;;-0.86;100.00;98047.61;109299;1237;61155;-78
2023/01/27 02:11:06;;;;;;;123.20;58.50;;;;;;;-0.89;100.00;98045.72;109032;1237;73443;-80
2023/01/27 02:13:33;;;;;;;123.90;57.00;;;;;;;-0.92;100.00;98048.16;109212;1237;71507;-78
2023/01/27 02:15:59;;;;;;;114.80;53.40;;;;;;;-0.94;100.00;98047.83;110889;1232;59170;-78
2023/01/27 02:18:26;;;;;;;115.00;56.40;;;;;;;-0.97;100.00;98048.11;109667;1232;61411;-79
2023/01/27 02:20:53;;;;;;;116.80;53.70;;;;;;;-1.07;100.00;98044.55;109033;1231;61240;-79
2023/01/27 02:23:28;;;;;;;114.40;53.30;;;;;;;-1.07;100.00;98040.99;109016;1232;74345;-79
2023/01/27 02:26:21;;;;;;;108.40;51.00;;;;;;;-1.08;100.00;98040.95;110069;1231;69638;-78
2023/01/27 02:29:08;;;;;;;101.20;47.90;;;;;;;-1.11;100.00;98043.25;108935;1238;63386;-78
2023/01/27 02:31:34;;;;;;;108.60;49.90;;;;;;;-1.11;100.00;98048.06;109283;1233;61203;-79
2023/01/27 02:34:12;;;;;;;105.30;50.60;;;;;;;-1.12;100.00;98046.92;109005;1237;61217;-79
2023/01/27 02:36:42;;;;;;;115.60;50.80;;;;;;;-1.14;100.00;98052.64;109918;1232;73281;-80
2023/01/27 02:39:10;;;;;;;116.50;51.10;;;;;;;-1.10;100.00;98057.20;108888;1238;70412;-79
2023/01/27 02:41:41;;;;;;;106.60;47.90;;;;;;;-1.07;100.00;98059.09;109225;1236;72415;-79
2023/01/27 02:44:08;;;;;;;103.30;48.50;;;;;;;-1.06;100.00;98062.91;109573;1232;61258;-78
2023/01/27 02:46:35;;;;;;;122.90;53.50;;;;;;;-1.09;100.00;98060.92;111749;1231;58946;-76
2023/01/27 02:49:02;;;;;;;110.10;50.30;;;;;;;-1.09;100.00;98067.79;109142;1236;74408;-79
2023/01/27 02:51:29;;;;;;;107.00;46.10;;;;;;;-1.08;100.00;98065.80;108788;1238;69843;-79
2023/01/27 02:53:55;;;;;;;114.10;50.50;;;;;;;-1.08;100.00;98067.52;109281;1231;61089;-78
2023/01/27 02:56:22;;;;;;;102.80;46.60;;;;;;;-1.08;100.00;98066.56;110546;1231;61071;-78
2023/01/27 02:58:48;;;;;;;110.30;47.50;;;;;;;-1.06;100.00;98067.63;109447;1232;61304;-78
2023/01/27 03:01:14;;;;;;;112.50;48.60;;;;;;;-1.08;100.00;98068.94;109023;1244;61217;-78
2023/01/27 03:03:46;;;;;;;111.20;52.00;;;;;;;-1.07;100.00;98069.84;109001;1231;61226;-78
2023/01/27 03:06:13;;;;;;;104.60;50.30;;;;;;;-1.06;100.00;98066.48;109370;1231;72431;-78
2023/01/27 03:08:39;;;;;;;111.30;51.00;;;;;;;-1.03;100.00;98066.52;108856;1231;61120;-79
2023/01/27 03:11:06;;;;;;;118.60;51.30;;;;;;;-1.01;100.00;98066.33;109133;1231;61270;-78
2023/01/27 03:13:33;;;;;;;117.20;49.80;;;;;;;-1.01;100.00;98059.69;109291;1234;74387;-78
2023/01/27 03:18:46;;;;;;;104.40;48.10;;;;;;;-1.03;100.00;98056.45;109102;1232;71318;-80
2023/01/27 03:21:12;;;;;;;114.90;55.10;;;;;;;-1.03;100.00;98057.06;108842;1237;61259;-78
2023/01/27 03:23:39;;;;;;;113.90;54.10;;;;;;;-1.03;100.00;98053.14;109049;1231;61268;-79
2023/01/27 03:26:06;;;;;;;110.30;50.50;;;;;;;-1.03;100.00;98056.04;109968;1231;61146;-80
2023/01/27 03:28:32;;;;;;;108.80;50.90;;;;;;;-1.08;100.00;98051.17;109001;1231;71003;-79
2023/01/27 03:31:00;;;;;;;119.70;51.60;;;;;;;-1.12;100.00;98047.62;108821;1234;61223;-79
2023/01/27 03:33:26;;;;;;;117.00;51.70;;;;;;;-1.13;100.00;98046.02;109019;1232;61354;-80
2023/01/27 03:46:55;;;;;;;91.10;41.00;;;;;;;-1.12;100.00;98041.55;111075;1235;61200;-78
2023/01/27 03:49:21;;;;;;;100.90;44.60;;;;;;;-1.15;100.00;98038.73;109014;1236;61252;-77
2023/01/27 03:51:47;;;;;;;89.10;38.90;;;;;;;-1.20;100.00;98040.67;109223;1232;59476;-80
2023/01/27 03:54:14;;;;;;;92.60;42.80;;;;;;;-1.24;100.00;98040.17;109025;1234;61209;-77
2023/01/27 03:56:40;;;;;;;88.50;40.40;;;;;;;-1.29;100.00;98040.86;110794;1236;61206;-79
2023/01/27 03:59:07;;;;;;;101.80;42.20;;;;;;;-1.26;100.00;98044.66;109096;1231;61313;-79
2023/01/27 04:01:33;;;;;;;100.50;44.30;;;;;;;-1.28;100.00;98046.05;109192;1237;61248;-78
2023/01/27 04:06:55;;;;;;;94.90;41.20;;;;;;;-1.29;100.00;98043.14;110691;1231;60962;-77
2023/01/27 04:09:29;;;;;;;100.30;43.60;;;;;;;-1.29;100.00;98041.95;108997;1231;71331;-77
2023/01/27 04:11:57;;;;;;;81.80;38.30;;;;;;;-1.31;100.00;98039.30;109457;1231;61102;-79
2023/01/27 04:14:29;;;;;;;99.20;43.50;;;;;;;-1.29;100.00;98043.75;109264;1231;59413;-79
2023/01/27 04:17:06;;;;;;;99.10;41.60;;;;;;;-1.28;100.00;98042.20;111055;1231;74402;-78
2023/01/27 04:19:32;;;;;;;91.40;41.90;;;;;;;-1.25;100.00;98044.71;109009;1235;69847;-79
2023/01/27 04:21:59;;;;;;;94.20;39.80;;;;;;;-1.23;100.00;98040.09;109107;1231;61241;-77
2023/01/27 04:24:25;;;;;;;94.80;37.50;;;;;;;-1.24;100.00;98041.02;108966;1231;61214;-79
2023/01/27 04:26:56;;;;;;;88.80;39.90;;;;;;;-1.24;100.00;98043.77;109922;1235;61344;-77
2023/01/27 04:29:24;;;;;;;73.30;35.30;;;;;;;-1.30;100.00;98043.96;109044;1231;74517;-77
2023/01/27 04:31:50;;;;;;;83.80;38.00;;;;;;;-1.37;100.00;98045.71;109085;1231;62469;-77
2023/01/27 04:34:16;;;;;;;78.30;36.60;;;;;;;-1.36;100.00;98045.20;109064;1237;61281;-77
2023/01/27 04:36:43;;;;;;;86.30;36.50;;;;;;;-1.34;100.00;98049.33;110504;1234;61059;-79
2023/01/27 04:39:09;;;;;;;85.00;40.70;;;;;;;-1.36;100.00;98045.84;109386;1234;61318;-78
2023/01/27 04:41:36;;;;;;;87.00;40.10;;;;;;;-1.35;100.00;98047.20;108981;1231;61208;-79
2023/01/27 04:44:03;;;;;;;97.70;42.20;;;;;;;-1.36;100.00;98042.69;109114;1231;61105;-79
2023/01/27 04:46:29;;;;;;;84.80;38.60;;;;;;;-1.33;100.00;98043.60;110379;1231;72430;-79
2023/01/27 04:48:56;;;;;;;87.30;41.20;;;;;;;-1.31;100.00;98044.05;108940;1232;61198;-77
2023/01/27 04:51:22;;;;;;;86.60;40.40;;;;;;;-1.28;100.00;98046.79;109026;1231;61313;-77
2023/01/27 04:53:48;;;;;;;88.00;39.20;;;;;;;-1.27;100.00;98046.77;109130;1232;61111;-78
2023/01/27 04:56:22;;;;;;;89.00;43.20;;;;;;;-1.25;100.00;98050.08;110187;1236;61102;-77
2023/01/27 04:58:48;;;;;;;90.70;41.90;;;;;;;-1.25;100.00;98046.99;108858;1235;63951;-77
2023/01/27 05:01:14;;;;;;;80.60;35.10;;;;;;;-1.26;100.00;98046.76;109098;1237;61302;-78
2023/01/27 05:03:41;;;;;;;80.00;34.00;;;;;;;-1.25;100.00;98046.23;109037;1231;61322;-77
2023/01/27 05:06:09;;;;;;;80.90;35.10;;;;;;;-1.23;100.00;98047.48;110277;1234;61211;-79
2023/01/27 05:08:36;;;;;;;88.10;39.60;;;;;;;-1.25;100.00;98047.61;109507;1231;70731;-79
2023/01/27 05:11:03;;;;;;;86.50;39.50;;;;;;;-1.23;100.00;98048.59;109030;1235;61322;-79
2023/01/27 05:13:29;;;;;;;84.00;38.30;;;;;;;-1.23;100.00;98050.27;109784;1237;61192;-77
2023/01/27 05:16:06;;;;;;;86.30;35.00;;;;;;;-1.22;100.00;98051.58;110613;1231;61294;-77
2023/01/27 05:18:32;;;;;;;73.90;34.60;;;;;;;-1.21;100.00;98052.34;109173;1231;72645;-79
2023/01/27 05:21:00;;;;;;;77.00;33.60;;;;;;;-1.21;100.00;98049.27;109037;1236;61226;-78
2023/01/27 05:23:35;;;;;;;75.30;35.30;;;;;;;-1.23;100.00;98049.13;109289;1231;62788;-78
2023/01/27 05:26:03;;;;;;;69.60;31.60;;;;;;;-1.29;100.00;98046.95;109019;1233;61214;-77
2023/01/27 05:28:30;;;;;;;69.30;32.50;;;;;;;-1.38;100.00;98049.30;109056;1231;61289;-78
2023/01/27 05:31:04;;;;;;;73.60;32.80;;;;;;;-1.41;100.00;98051.36;109012;1231;73366;-77
2023/01/27 05:33:31;;;;;;;81.80;35.30;;;;;;;-1.39;100.00;98050.53;109337;1231;71277;-76
2023/01/27 05:35:59;;;;;;;71.70;31.80;;;;;;;-1.37;100.00;98053.61;110924;1231;61203;-77
2023/01/27 05:38:25;;;;;;;73.10;34.90;;;;;;;-1.39;100.00;98057.81;109511;1232;61292;-78
2023/01/27 05:40:56;;;;;;;88.40;43.50;;;;;;;-1.43;100.00;98063.91;109279;1232;61312;-77
2023/01/27 05:43:24;;;;;;;87.70;39.60;;;;;;;-1.41;100.00;98061.21;109228;1236;73396;-77
2023/01/27 05:45:50;;;;;;;79.40;36.60;;;;;;;-1.39;100.00;98069.67;110439;1232;70909;-77
2023/01/27 05:48:17;;;;;;;73.50;32.00;;;;;;;-1.39;100.00;98074.42;109195;1231;61415;-77
2023/01/27 05:50:43;;;;;;;79.00;34.20;;;;;;;-1.45;100.00;98073.10;109247;1237;61246;-77
2023/01/27 05:53:10;;;;;;;78.50;33.70;;;;;;;-1.48;100.00;98069.66;108740;1232;61434;-77
2023/01/27 05:55:36;;;;;;;75.10;31.80;;;;;;;-1.53;100.00;98068.11;109915;1231;61127;-79
2023/01/27 05:58:02;;;;;;;72.70;33.70;;;;;;;-1.54;100.00;98068.75;109439;1231;61309;-77
2023/01/27 06:00:29;;;;;;;79.90;37.50;;;;;;;-1.56;100.00;98067.11;109019;1236;61353;-78
2023/01/27 06:02:55;;;;;;;85.00;38.20;;;;;;;-1.55;100.00;98067.48;109437;1231;61242;-78
2023/01/27 06:05:21;;;;;;;85.30;37.30;;;;;;;-1.50;100.00;98069.54;110108;1231;59430;-77
2023/01/27 06:07:48;;;;;;;83.30;35.70;;;;;;;-1.51;100.00;98070.16;110373;1234;61233;-78
2023/01/27 06:10:14;;;;;;;82.90;37.50;;;;;;;-1.49;100.00;98070.31;109158;1237;62665;-77
2023/01/27 06:12:41;;;;;;;68.00;31.70;;;;;;;-1.52;100.00;98071.08;109154;1232;61443;-79
2023/01/27 06:15:08;;;;;;;81.40;38.00;;;;;;;-1.59;100.00;98073.92;109529;1231;61345;-79
2023/01/27 06:17:34;;;;;;;84.50;40.50;;;;;;;-1.57;100.00;98073.23;109487;1236;61290;-78
2023/01/27 06:20:01;;;;;;;88.90;40.00;;;;;;;-1.57;100.00;98073.40;108873;1232;61328;-79
2023/01/27 06:22:27;;;;;;;83.60;37.90;;;;;;;-1.58;100.00;98079.11;109037;1231;61347;-78
2023/01/27 06:24:53;;;;;;;86.00;36.90;;;;;;;-1.62;100.00;98075.65;109495;1235;61769;-77
2023/01/27 06:27:20;;;;;;;80.50;35.20;;;;;;;-1.61;100.00;98080.27;110521;1234;61210;-77
2023/01/27 06:29:46;;;;;;;76.00;32.20;;;;;;;-1.64;100.00;98080.45;109072;1235;61177;-77
2023/01/27 06:32:13;;;;;;;84.00;42.80;;;;;;;-1.67;100.00;98082.63;109173;1237;61313;-77
2023/01/27 06:34:39;;;;;;;87.00;40.50;;;;;;;-1.70;100.00;98086.70;109415;1232;61232;-77
2023/01/27 06:37:06;;;;;;;89.20;38.80;;;;;;;-1.72;100.00;98086.36;110460;1232;61257;-78
2023/01/27 06:39:32;;;;;;;109.00;51.40;;;;;;;-1.67;100.00;98083.64;109500;1231;61217;-79
2023/01/27 06:41:58;;;;;;;113.20;51.60;;;;;;;-1.64;100.00;98081.80;109775;1231;59114;-78
2023/01/27 06:44:25;;;;;;;96.80;43.50;;;;;;;-1.64;100.00;98081.31;109175;1236;61194;-77
2023/01/27 06:46:52;;;;;;;116.90;58.50;;;;;;;-1.63;100.00;98078.66;110212;1231;61143;-79
2023/01/27 06:49:18;;;;;;;89.10;37.50;;;;;;;-1.63;100.00;98075.52;109191;1236;61179;-79
2023/01/27 06:51:45;;;;;;;86.60;41.60;;;;;;;-1.58;100.00;98079.91;108983;1232;60131;-78
2023/01/27 06:54:11;;;;;;;84.50;36.80;;;;;;;-1.54;100.00;98083.69;109152;1232;61334;-79
2023/01/27 06:56:38;;;;;;;94.40;38.40;;;;;;;-1.53;100.00;98090.17;110438;1232;61175;-79
2023/01/27 06:59:04;;;;;;;87.80;38.20;;;;;;;-1.53;100.00;98089.05;109192;1231;61345;-78
2023/01/27 07:01:30;;;;;;;114.80;50.40;;;;;;;-1.53;100.00;98086.75;109118;1233;61411;-77
2023/01/27 07:03:57;;;;;;;86.70;37.20;;;;;;;-1.55;100.00;98092.34;109205;1234;61306;-77
2023/01/27 07:06:23;;;;;;;91.70;38.50;;;;;;;-1.55;100.00;98095.16;110820;1231;61331;-79
2023/01/27 07:08:50;;;;;;;80.40;33.80;;;;;;;-1.53;100.00;98097.88;110037;1231;59222;-79
2023/01/27 07:11:16;;;;;;;79.80;32.10;;;;;;;-1.52;100.00;98099.95;108992;1237;61286;-77
2023/01/27 07:13:42;;;;;;;92.50;43.60;;;;;;;-1.58;100.00;98102.23;109328;1231;61213;-77
2023/01/27 07:16:09;;;;;;;84.40;41.10;;;;;;;-1.59;100.00;98100.10;110969;1231;61130;-79
2023/01/27 07:18:35;;;;;;;79.20;37.40;;;;;;;-1.63;100.00;98105.20;109314;1236;61283;-77
2023/01/27 07:21:05;;;;;;;84.50;35.30;;;;;;;-1.62;100.00;98099.98;109043;1231;61128;-79
2023/01/27 07:23:31;;;;;;;77.50;34.90;;;;;;;-1.60;100.00;98097.69;109044;1232;61312;-78
2023/01/27 07:26:00;;;;;;;84.30;34.20;;;;;;;-1.59;100.00;98105.09;110665;1232;59444;-79
2023/01/27 07:28:26;;;;;;;126.60;57.50;;;;;;;-1.59;100.00;98105.83;109665;1236;61292;-77
2023/01/27 07:30:53;;;;;;;88.00;43.10;;;;;;;-1.57;100.00;98104.27;109056;1231;61239;-78
2023/01/27 07:33:19;;;;;;;94.30;46.10;;;;;;;-1.55;100.00;98106.61;109418;1231;61302;-77
2023/01/27 07:35:48;;;;;;;89.70;39.90;;;;;;;-1.55;100.00;98106.48;110437;1231;61345;-77
2023/01/27 07:38:15;;;;;;;87.70;42.10;;;;;;;-1.51;100.00;98111.98;109669;1231;72386;-77
2023/01/27 07:40:42;;;;;;;72.00;35.40;;;;;;;-1.51;100.00;98110.77;110916;1231;61152;-78
2023/01/27 07:43:09;;;;;;;83.70;42.00;;;;;;;-1.46;100.00;98114.13;109689;1232;62274;-79
2023/01/27 07:45:37;;;;;;;92.80;45.80;;;;;;;-1.47;100.00;98115.87;110706;1231;73367;-80
2023/01/27 07:48:05;;;;;;;86.20;41.40;;;;;;;-1.48;100.00;98120.20;111127;1234;70753;-78
2023/01/27 07:50:32;;;;;;;90.00;47.50;;;;;;;-1.42;100.00;98118.55;111842;1231;63837;-78
2023/01/27 07:53:00;;;;;;;85.20;45.00;;;;;;;-1.38;100.00;98120.39;109177;1235;61421;-78
2023/01/27 07:55:27;;;;;;;138.10;68.10;;;;;;;-1.39;100.00;98129.23;112199;1231;58960;-78
2023/01/27 07:57:54;;;;;;;98.30;47.50;;;;;;;-1.40;100.00;98129.96;112171;1231;74412;-78
2023/01/27 08:00:20;;;;;;;99.30;55.30;;;;;;;-1.46;100.00;98132.19;112199;1231;70360;-78
2023/01/27 08:02:53;;;;;;;139.50;95.60;;;;;;;-1.39;100.00;98130.33;112173;1231;71271;-78
2023/01/27 08:05:19;;;;;;;196.40;100.90;;;;;;;-1.37;100.00;98127.39;112148;1231;60466;-78
2023/01/27 08:07:46;;;;;;;226.30;108.70;;;;;;;-1.35;100.00;98131.58;112202;1231;60016;-78
2023/01/27 08:10:12;;;;;;;281.40;132.30;;;;;;;-1.32;100.00;98131.25;109256;1231;61311;-80
2023/01/27 08:12:39;;;;;;;348.60;162.90;;;;;;;-1.31;100.00;98134.48;109083;1231;61322;-78
2023/01/27 08:15:05;;;;;;;139.70;65.50;;;;;;;-1.26;100.00;98129.59;109416;1231;61325;-77
2023/01/27 08:17:32;;;;;;;145.70;67.20;;;;;;;-1.24;100.00;98131.79;109984;1236;61255;-79
2023/01/27 08:19:58;;;;;;;145.90;59.00;;;;;;;-1.27;100.00;98131.91;108866;1234;61303;-78
2023/01/27 08:22:26;;;;;;;148.60;68.40;;;;;;;-1.24;100.00;98133.60;109144;1231;61299;-77
2023/01/27 08:24:53;;;;;;;161.60;73.80;;;;;;;-1.28;100.00;98133.84;108891;1234;61224;-77
2023/01/27 08:27:19;;;;;;;176.60;86.00;;;;;;;-1.31;100.00;98128.59;111014;1236;61260;-78
2023/01/27 08:29:45;;;;;;;129.80;64.90;;;;;;;-1.31;100.00;98136.36;108969;1232;61610;-79
2023/01/27 08:32:12;;;;;;;100.20;50.90;;;;;;;-1.27;100.00;98145.59;108708;1231;61652;-77
2023/01/27 08:34:39;;;;;;;101.20;51.20;;;;;;;-1.22;100.00;98148.20;109092;1237;61213;-79
2023/01/27 08:37:05;;;;;;;89.10;42.70;;;;;;;-1.24;100.00;98147.67;112012;1231;59627;-79
2023/01/27 08:39:32;;;;;;;97.70;44.70;;;;;;;-1.22;100.00;98145.80;109122;1236;61322;-77
2023/01/27 08:41:58;;;;;;;93.70;43.00;;;;;;;-1.16;100.00;98156.28;108978;1237;61172;-79
2023/01/27 08:44:27;;;;;;;79.40;37.80;;;;;;;-1.19;100.00;98156.03;109477;1237;60414;-79
2023/01/27 08:46:54;;;;;;;80.60;37.70;;;;;;;-1.21;100.00;98160.16;111255;1231;73366;-79
2023/01/27 08:49:20;;;;;;;74.80;38.30;;;;;;;-1.20;100.00;98163.72;109355;1231;69155;-79
2023/01/27 08:51:46;;;;;;;97.90;46.60;;;;;;;-1.11;100.00;98165.13;108993;1236;61213;-77
2023/01/27 08:54:13;;;;;;;85.50;43.20;;;;;;;-1.05;100.00;98167.77;109642;1231;61306;-77
2023/01/27 08:56:39;;;;;;;79.90;40.60;;;;;;;-1.15;100.00;98162.42;110575;1231;61293;-77
2023/01/27 08:59:05;;;;;;;78.60;36.50;;;;;;;-1.10;100.00;98161.40;109148;1231;61348;-77
2023/01/27 09:01:32;;;;;;;83.00;36.70;;;;;;;-1.01;100.00;98160.69;109457;1236;144933;-79
2023/01/27 09:03:58;;;;;;;82.40;41.00;;;;;;;-0.98;100.00;98162.48;109183;1237;61264;-77
2023/01/27 09:06:25;;;;;;;76.10;38.60;;;;;;;-0.96;100.00;98161.06;110947;1236;61478;-78
2023/01/27 09:09:10;;;;;;;76.30;36.90;;;;;;;-0.88;100.00;98159.52;109455;1236;61327;-79
2023/01/27 09:11:38;;;;;;;76.50;35.60;;;;;;;-0.80;100.00;98162.22;109316;1237;65776;-79
2023/01/27 09:14:04;;;;;;;85.60;38.50;;;;;;;-0.71;100.00;98159.11;109976;1236;69880;-77
2023/01/27 09:16:31;;;;;;;67.40;33.20;;;;;;;-0.66;100.00;98161.25;110315;1231;72130;-78
2023/01/27 09:18:57;;;;;;;69.80;33.50;;;;;;;-0.54;100.00;98158.55;109019;1238;61246;-77
2023/01/27 09:21:24;;;;;;;62.60;32.50;;;;;;;-0.52;100.00;98160.60;109212;1236;61309;-77
2023/01/27 09:23:51;;;;;;;75.50;34.30;;;;;;;-0.46;100.00;98159.66;109326;1237;74538;-78
2023/01/27 09:26:17;;;;;;;416.30;162.10;;;;;;;-0.45;100.00;98160.88;110784;1231;61207;-77
2023/01/27 09:28:43;;;;;;;118.20;54.10;;;;;;;-0.64;100.00;98163.70;108990;1231;61295;-77
2023/01/27 09:31:10;;;;;;;341.00;137.70;;;;;;;-0.71;100.00;98165.23;109430;1233;61239;-77
2023/01/27 09:33:39;;;;;;;105.00;48.60;;;;;;;-0.81;100.00;98165.38;109405;1236;61335;-79
2023/01/27 09:36:09;;;;;;;199.50;80.00;;;;;;;-0.74;100.00;98165.34;110424;1237;74498;-77
2023/01/27 09:38:45;;;;;;;154.10;61.50;;;;;;;-0.72;100.00;98163.83;108990;1231;70389;-78
2023/01/27 09:41:26;;;;;;;225.80;95.80;;;;;;;-0.79;100.00;98162.27;108747;1231;72681;-77
2023/01/27 09:44:28;;;;;;;431.40;167.50;;;;;;;-0.83;100.00;98158.67;110506;1234;61140;-79
2023/01/27 09:47:27;;;;;;;70.30;36.70;;;;;;;-0.80;100.00;98150.80;110885;1231;60104;-78
2023/01/27 09:50:12;;;;;;;196.90;75.90;;;;;;;-0.88;100.00;98157.80;109349;1236;74430;-79
2023/01/27 09:53:00;;;;;;;199.50;79.20;;;;;;;-0.80;100.00;98149.29;109273;1237;69719;-78
2023/01/27 09:55:33;;;;;;;84.80;41.40;;;;;;;-0.77;100.00;98152.36;110199;1231;72453;-77
2023/01/27 09:58:22;;;;;;;91.60;38.80;;;;;;;-0.76;100.00;98153.34;111123;1237;60719;-78
2023/01/27 10:01:08;;;;;;;;;;;;;;;-0.72;100.00;98150.45;111614;1235;59433;-78
2023/01/27 10:03:42;;;;;;;296.80;120.60;;;;;;;-0.75;100.00;98152.90;109978;1236;73878;-78
2023/01/27 10:06:11;;;;;;;102.10;49.10;;;;;;;-0.75;100.00;98147.13;110455;1236;69800;-78
2023/01/27 10:09:07;;;;;;;70.60;33.70;;;;;;;-0.70;100.00;98147.59;108972;1238;71322;-79
2023/01/27 10:11:40;;;;;;;59.80;27.20;;;;;;;-0.56;100.00;98150.27;108951;1236;61162;-78
2023/01/27 10:14:33;;;;;;;106.60;52.30;;;;;;;-0.54;100.00;98150.98;109128;1236;61198;-79
2023/01/27 10:17:06;;;;;;;47.00;22.20;;;;;;;-0.45;100.00;98153.48;110393;1232;74379;-79
2023/01/27 10:20:05;;;;;;;76.20;34.90;;;;;;;-0.48;100.00;98154.42;109100;1236;71024;-79
2023/01/27 10:22:53;;;;;;;111.50;46.50;;;;;;;-0.60;99.61;98153.88;109349;1231;71627;-79
2023/01/27 10:25:39;;;;;;;59.50;29.00;;;;;;;-0.63;98.80;98152.33;109249;1231;61289;-79
2023/01/27 10:28:11;;;;;;;70.00;31.70;;;;;;;-0.55;99.75;98154.38;109257;1232;61207;-77
2023/01/27 10:30:38;;;;;;;128.80;59.70;;;;;;;-0.55;99.25;98153.52;109279;1237;65823;-77
2023/01/27 10:33:15;;;;;;;57.60;27.40;;;;;;;-0.61;98.66;98149.66;109321;1236;70908;-78
2023/01/27 10:35:52;;;;;;;51.80;24.30;;;;;;;-0.55;98.80;98148.77;110253;1236;71357;-79
2023/01/27 10:38:30;;;;;;;52.40;27.70;;;;;;;-0.64;97.81;98147.49;109790;1231;61229;-80
2023/01/27 10:41:06;;;;;;;49.20;25.00;;;;;;;-0.51;99.09;98148.19;109138;1232;61126;-78
2023/01/27 10:43:55;;;;;;;48.60;23.80;;;;;;;-0.54;98.10;98148.55;109438;1236;65825;-79
2023/01/27 10:46:29;;;;;;;48.80;21.20;;;;;;;-0.41;99.03;98150.77;111170;1236;70813;-78
2023/01/27 10:49:25;;;;;;;47.10;24.60;;;;;;;-0.45;97.74;98152.03;109452;1236;71384;-79
2023/01/27 10:51:54;;;;;;;41.80;23.60;;;;;;;-0.53;96.98;98147.61;108566;1234;61255;-78
2023/01/27 10:54:23;;;;;;;51.20;24.50;;;;;;;-0.49;97.66;98148.52;108933;1237;61235;-77
2023/01/27 10:56:58;;;;;;;;;;;;;;;-0.40;98.32;98154.34;111039;1231;74411;-78
2023/01/27 10:59:35;;;;;;;43.80;22.00;;;;;;;-0.37;98.48;98158.17;109133;1236;70882;-79
2023/01/27 11:02:06;;;;;;;39.80;21.10;;;;;;;-0.35;98.48;98158.51;109393;1232;71315;-77
2023/01/27 11:04:43;;;;;;;39.80;18.70;;;;;;;-0.29;98.94;98157.05;109673;1237;61162;-78
2023/01/27 11:07:18;;;;;;;40.50;20.20;;;;;;;-0.23;99.04;98158.20;110750;1236;61216;-78
2023/01/27 11:09:54;;;;;;;40.30;20.10;;;;;;;-0.37;97.48;98160.02;109087;1231;73290;-79
2023/01/27 11:12:29;;;;;;;49.30;24.80;;;;;;;-0.33;98.30;98157.27;109105;1236;70448;-78
2023/01/27 11:14:56;;;;;;;44.40;23.00;;;;;;;-0.26;99.01;98160.62;109617;1237;71849;-79
2023/01/27 11:17:36;;;;;;;50.70;24.50;;;;;;;-0.31;96.95;98160.27;111947;1231;59021;-78
2023/01/27 11:20:11;;;;;;;37.30;18.80;;;;;;;-0.24;98.21;98159.42;110939;1234;61265;-77
2023/01/27 11:22:50;;;;;;;34.10;17.40;;;;;;;-0.36;96.58;98162.31;109152;1232;74434;-78
2023/01/27 11:25:28;;;;;;;38.10;18.60;;;;;;;-0.42;96.05;98160.22;109187;1231;70066;-78
2023/01/27 11:28:07;;;;;;;33.50;15.60;;;;;;;-0.28;97.85;98157.52;111967;1231;72585;-79
2023/01/27 11:31:02;;;;;;;48.40;20.50;;;;;;;-0.26;97.79;98155.02;110915;1232;61329;-79
2023/01/27 11:33:35;;;;;;;41.80;19.00;;;;;;;-0.30;97.83;98156.36;109385;1236;61147;-77
2023/01/27 11:36:02;;;;;;;44.10;18.70;;;;;;;-0.30;97.80;98152.67;110681;1231;73314;-78